sensor_id;sensor_type;location;lat;lon;timestamp;temperature;humidity
64939;DHT22;51453;47.738;7.420;2024-02-14T00:01:48;5.80;99.90
64939;DHT22;51453;47.738;7.420;2024-02-14T00:04:14;5.80;99.90
64939;DHT22;51453;47.738;7.420;2024-02-14T00:06:40;5.80;99.90
64939;DHT22;51453;47.738;7.420;2024-02-14T00:09:06;5.80;99.90
64939;DHT22;51453;47.738;7.420;2024-02-14T00:11:32;5.90;99.90
64939;DHT22;51453;47.738;7.420;2024-02-14T00:13:58;5.80;99.90
64939;DHT22;51453;47.738;7.420;2024-02-14T00:16:27;5.90;99.90
64939;DHT22;51453;47.738;7.420;2024-02-14T00:18:54;5.90;99.90
64939;DHT22;51453;47.738;7.420;2024-02-14T00:21:19;5.80;99.90
64939;DHT22;51453;47.738;7.420;2024-02-14T00:23:45;5.80;99.90
64939;DHT22;51453;47.738;7.420;2024-02-14T00:26:11;5.80;99.90
64939;DHT22;51453;47.738;7.420;2024-02-14T00:28:36;5.80;99.90
64939;DHT22;51453;47.738;7.420;2024-02-14T00:31:02;5.80;99.90
64939;DHT22;51453;47.738;7.420;2024-02-14T00:33:28;5.80;99.90
64939;DHT22;51453;47.738;7.420;2024-02-14T00:35:54;5.90;99.90
64939;DHT22;51453;47.738;7.420;2024-02-14T00:38:19;5.90;99.90
64939;DHT22;51453;47.738;7.420;2024-02-14T00:40:45;5.90;99.90
64939;DHT22;51453;47.738;7.420;2024-02-14T00:43:10;5.90;99.90
64939;DHT22;51453;47.738;7.420;2024-02-14T00:45:36;5.90;99.90
64939;DHT22;51453;47.738;7.420;2024-02-14T00:48:03;6.00;99.90
64939;DHT22;51453;47.738;7.420;2024-02-14T00:50:29;5.90;99.90
64939;DHT22;51453;47.738;7.420;2024-02-14T00:52:55;5.90;99.90
64939;DHT22;51453;47.738;7.420;2024-02-14T00:55:20;5.90;99.90
64939;DHT22;51453;47.738;7.420;2024-02-14T00:57:46;6.00;99.90
64939;DHT22;51453;47.738;7.420;2024-02-14T01:00:12;6.00;99.90
64939;DHT22;51453;47.738;7.420;2024-02-14T01:02:37;6.00;99.90
64939;DHT22;51453;47.738;7.420;2024-02-14T01:05:03;6.00;99.90
64939;DHT22;51453;47.738;7.420;2024-02-14T01:07:29;6.00;99.90
64939;DHT22;51453;47.738;7.420;2024-02-14T01:09:55;6.10;99.90
64939;DHT22;51453;47.738;7.420;2024-02-14T01:12:21;6.10;99.90
64939;DHT22;51453;47.738;7.420;2024-02-14T01:14:46;6.10;99.90
64939;DHT22;51453;47.738;7.420;2024-02-14T01:17:12;6.10;99.90
64939;DHT22;51453;47.738;7.420;2024-02-14T01:19:38;6.00;99.90
64939;DHT22;51453;47.738;7.420;2024-02-14T01:22:03;6.10;99.90
64939;DHT22;51453;47.738;7.420;2024-02-14T01:24:29;6.00;99.90
64939;DHT22;51453;47.738;7.420;2024-02-14T01:26:55;5.90;99.90
64939;DHT22;51453;47.738;7.420;2024-02-14T01:29:21;5.80;99.90
64939;DHT22;51453;47.738;7.420;2024-02-14T01:31:48;5.80;99.90
64939;DHT22;51453;47.738;7.420;2024-02-14T01:34:15;5.80;99.90
64939;DHT22;51453;47.738;7.420;2024-02-14T01:36:41;5.80;99.90
64939;DHT22;51453;47.738;7.420;2024-02-14T01:39:07;5.70;99.90
64939;DHT22;51453;47.738;7.420;2024-02-14T01:41:45;5.80;99.90
64939;DHT22;51453;47.738;7.420;2024-02-14T01:44:16;5.80;99.90
64939;DHT22;51453;47.738;7.420;2024-02-14T01:46:43;5.80;99.90
64939;DHT22;51453;47.738;7.420;2024-02-14T01:49:12;5.80;99.90
64939;DHT22;51453;47.738;7.420;2024-02-14T01:51:38;5.80;99.90
64939;DHT22;51453;47.738;7.420;2024-02-14T01:54:05;5.80;99.90
64939;DHT22;51453;47.738;7.420;2024-02-14T01:56:31;5.80;99.90
64939;DHT22;51453;47.738;7.420;2024-02-14T01:58:59;5.80;99.90
64939;DHT22;51453;47.738;7.420;2024-02-14T02:01:24;5.80;99.90
64939;DHT22;51453;47.738;7.420;2024-02-14T02:03:50;5.70;99.90
64939;DHT22;51453;47.738;7.420;2024-02-14T02:06:16;5.70;99.90
64939;DHT22;51453;47.738;7.420;2024-02-14T02:08:45;5.80;99.90
64939;DHT22;51453;47.738;7.420;2024-02-14T02:11:11;5.70;99.90
64939;DHT22;51453;47.738;7.420;2024-02-14T02:13:36;5.70;99.90
64939;DHT22;51453;47.738;7.420;2024-02-14T02:16:05;5.60;99.90
64939;DHT22;51453;47.738;7.420;2024-02-14T02:18:32;5.60;99.90
64939;DHT22;51453;47.738;7.420;2024-02-14T02:20:57;5.70;99.90
64939;DHT22;51453;47.738;7.420;2024-02-14T02:23:23;5.70;99.90
64939;DHT22;51453;47.738;7.420;2024-02-14T02:25:49;5.70;99.90
64939;DHT22;51453;47.738;7.420;2024-02-14T02:28:16;5.80;99.90
64939;DHT22;51453;47.738;7.420;2024-02-14T02:30:42;5.70;99.90
64939;DHT22;51453;47.738;7.420;2024-02-14T02:33:08;5.70;99.90
64939;DHT22;51453;47.738;7.420;2024-02-14T02:35:34;5.70;99.90
64939;DHT22;51453;47.738;7.420;2024-02-14T02:38:00;5.70;99.90
64939;DHT22;51453;47.738;7.420;2024-02-14T02:40:26;5.60;99.90
64939;DHT22;51453;47.738;7.420;2024-02-14T02:42:55;5.60;99.90
64939;DHT22;51453;47.738;7.420;2024-02-14T02:45:20;5.60;99.90
64939;DHT22;51453;47.738;7.420;2024-02-14T02:47:46;5.50;99.90
64939;DHT22;51453;47.738;7.420;2024-02-14T02:50:13;5.50;99.90
64939;DHT22;51453;47.738;7.420;2024-02-14T02:52:39;5.40;99.90
64939;DHT22;51453;47.738;7.420;2024-02-14T02:55:07;5.40;99.90
64939;DHT22;51453;47.738;7.420;2024-02-14T02:57:32;5.30;99.90
64939;DHT22;51453;47.738;7.420;2024-02-14T02:59:59;5.30;99.90
64939;DHT22;51453;47.738;7.420;2024-02-14T03:02:25;5.30;99.90
64939;DHT22;51453;47.738;7.420;2024-02-14T03:04:51;5.30;99.90
64939;DHT22;51453;47.738;7.420;2024-02-14T03:07:18;5.20;99.90
64939;DHT22;51453;47.738;7.420;2024-02-14T03:09:44;5.10;99.90
64939;DHT22;51453;47.738;7.420;2024-02-14T03:12:10;5.10;99.90
64939;DHT22;51453;47.738;7.420;2024-02-14T03:14:36;5.00;99.90
64939;DHT22;51453;47.738;7.420;2024-02-14T03:17:02;5.00;99.90
64939;DHT22;51453;47.738;7.420;2024-02-14T03:19:28;5.00;99.90
64939;DHT22;51453;47.738;7.420;2024-02-14T03:21:55;5.20;99.90
64939;DHT22;51453;47.738;7.420;2024-02-14T03:24:22;5.20;99.90
64939;DHT22;51453;47.738;7.420;2024-02-14T03:26:48;5.20;99.90
64939;DHT22;51453;47.738;7.420;2024-02-14T03:29:16;5.20;99.90
64939;DHT22;51453;47.738;7.420;2024-02-14T03:31:42;5.30;99.90
64939;DHT22;51453;47.738;7.420;2024-02-14T03:34:09;5.40;99.90
64939;DHT22;51453;47.738;7.420;2024-02-14T03:36:37;5.50;99.90
64939;DHT22;51453;47.738;7.420;2024-02-14T03:39:03;5.60;99.90
64939;DHT22;51453;47.738;7.420;2024-02-14T03:41:31;5.60;99.90
64939;DHT22;51453;47.738;7.420;2024-02-14T03:43:56;5.60;99.90
64939;DHT22;51453;47.738;7.420;2024-02-14T03:46:27;5.60;99.90
64939;DHT22;51453;47.738;7.420;2024-02-14T03:48:56;5.70;99.90
64939;DHT22;51453;47.738;7.420;2024-02-14T03:51:23;5.70;99.90
64939;DHT22;51453;47.738;7.420;2024-02-14T03:53:49;5.70;99.90
64939;DHT22;51453;47.738;7.420;2024-02-14T03:56:15;5.80;99.90
64939;DHT22;51453;47.738;7.420;2024-02-14T03:58:41;5.90;99.90
64939;DHT22;51453;47.738;7.420;2024-02-14T04:01:07;6.00;99.90
64939;DHT22;51453;47.738;7.420;2024-02-14T04:03:34;6.00;99.90
64939;DHT22;51453;47.738;7.420;2024-02-14T04:06:00;5.90;99.90
64939;DHT22;51453;47.738;7.420;2024-02-14T04:08:26;5.90;99.90
64939;DHT22;51453;47.738;7.420;2024-02-14T04:10:52;5.90;99.90
64939;DHT22;51453;47.738;7.420;2024-02-14T04:13:20;5.90;99.90
64939;DHT22;51453;47.738;7.420;2024-02-14T04:15:46;5.80;99.90
64939;DHT22;51453;47.738;7.420;2024-02-14T04:18:13;5.80;99.90
64939;DHT22;51453;47.738;7.420;2024-02-14T04:20:40;5.80;99.90
64939;DHT22;51453;47.738;7.420;2024-02-14T04:23:06;5.80;99.90
64939;DHT22;51453;47.738;7.420;2024-02-14T04:25:33;5.80;99.90
64939;DHT22;51453;47.738;7.420;2024-02-14T04:27:59;5.90;99.90
64939;DHT22;51453;47.738;7.420;2024-02-14T04:30:25;5.90;99.90
64939;DHT22;51453;47.738;7.420;2024-02-14T04:32:51;6.00;99.90
64939;DHT22;51453;47.738;7.420;2024-02-14T04:35:19;6.00;99.90
64939;DHT22;51453;47.738;7.420;2024-02-14T04:37:45;6.00;99.90
64939;DHT22;51453;47.738;7.420;2024-02-14T04:40:12;6.00;99.90
64939;DHT22;51453;47.738;7.420;2024-02-14T04:42:38;6.10;99.90
64939;DHT22;51453;47.738;7.420;2024-02-14T04:45:04;6.20;99.90
64939;DHT22;51453;47.738;7.420;2024-02-14T04:47:30;6.30;99.90
64939;DHT22;51453;47.738;7.420;2024-02-14T04:49:55;6.30;99.90
64939;DHT22;51453;47.738;7.420;2024-02-14T04:52:21;6.30;99.90
64939;DHT22;51453;47.738;7.420;2024-02-14T04:54:47;6.20;99.90
64939;DHT22;51453;47.738;7.420;2024-02-14T04:57:13;6.20;99.90
64939;DHT22;51453;47.738;7.420;2024-02-14T04:59:38;6.30;99.90
64939;DHT22;51453;47.738;7.420;2024-02-14T05:02:04;6.30;99.90
64939;DHT22;51453;47.738;7.420;2024-02-14T05:04:29;6.20;99.90
64939;DHT22;51453;47.738;7.420;2024-02-14T05:06:56;6.20;99.90
64939;DHT22;51453;47.738;7.420;2024-02-14T05:09:22;6.20;99.90
64939;DHT22;51453;47.738;7.420;2024-02-14T05:11:48;6.10;99.90
64939;DHT22;51453;47.738;7.420;2024-02-14T05:14:14;6.10;99.90
64939;DHT22;51453;47.738;7.420;2024-02-14T05:16:40;6.00;99.90
64939;DHT22;51453;47.738;7.420;2024-02-14T05:19:06;5.90;99.90
64939;DHT22;51453;47.738;7.420;2024-02-14T05:21:31;5.90;99.90
64939;DHT22;51453;47.738;7.420;2024-02-14T05:23:57;5.90;99.90
64939;DHT22;51453;47.738;7.420;2024-02-14T05:26:22;6.00;99.90
64939;DHT22;51453;47.738;7.420;2024-02-14T05:28:48;6.00;99.90
64939;DHT22;51453;47.738;7.420;2024-02-14T05:31:14;6.00;99.90
64939;DHT22;51453;47.738;7.420;2024-02-14T05:33:41;6.10;99.90
64939;DHT22;51453;47.738;7.420;2024-02-14T05:36:08;6.00;99.90
64939;DHT22;51453;47.738;7.420;2024-02-14T05:38:34;6.00;99.90
64939;DHT22;51453;47.738;7.420;2024-02-14T05:41:00;6.00;99.90
64939;DHT22;51453;47.738;7.420;2024-02-14T05:43:26;6.00;99.90
64939;DHT22;51453;47.738;7.420;2024-02-14T05:45:51;6.00;99.90
64939;DHT22;51453;47.738;7.420;2024-02-14T05:48:17;6.10;99.90
64939;DHT22;51453;47.738;7.420;2024-02-14T05:50:42;6.00;99.90
64939;DHT22;51453;47.738;7.420;2024-02-14T05:53:08;6.10;99.90
64939;DHT22;51453;47.738;7.420;2024-02-14T05:55:34;6.10;99.90
64939;DHT22;51453;47.738;7.420;2024-02-14T05:57:59;6.10;99.90
64939;DHT22;51453;47.738;7.420;2024-02-14T06:00:25;6.10;99.90
64939;DHT22;51453;47.738;7.420;2024-02-14T06:02:51;6.20;99.90
64939;DHT22;51453;47.738;7.420;2024-02-14T06:05:17;6.20;99.90
64939;DHT22;51453;47.738;7.420;2024-02-14T06:07:43;6.20;99.90
64939;DHT22;51453;47.738;7.420;2024-02-14T06:10:12;6.20;99.90
64939;DHT22;51453;47.738;7.420;2024-02-14T06:12:38;6.20;99.90
64939;DHT22;51453;47.738;7.420;2024-02-14T06:15:06;6.20;99.90
64939;DHT22;51453;47.738;7.420;2024-02-14T06:17:33;6.30;99.90
64939;DHT22;51453;47.738;7.420;2024-02-14T06:19:58;6.30;99.90
64939;DHT22;51453;47.738;7.420;2024-02-14T06:22:25;6.40;99.90
64939;DHT22;51453;47.738;7.420;2024-02-14T06:24:51;6.30;99.90
64939;DHT22;51453;47.738;7.420;2024-02-14T06:27:16;6.30;99.90
64939;DHT22;51453;47.738;7.420;2024-02-14T06:29:43;6.40;99.90
64939;DHT22;51453;47.738;7.420;2024-02-14T06:32:09;6.30;99.90
64939;DHT22;51453;47.738;7.420;2024-02-14T06:34:35;6.40;99.90
64939;DHT22;51453;47.738;7.420;2024-02-14T06:37:00;6.40;99.90
64939;DHT22;51453;47.738;7.420;2024-02-14T06:39:26;6.30;99.90
64939;DHT22;51453;47.738;7.420;2024-02-14T06:41:52;6.30;99.90
64939;DHT22;51453;47.738;7.420;2024-02-14T06:44:18;6.30;99.90
64939;DHT22;51453;47.738;7.420;2024-02-14T06:46:44;6.40;99.90
64939;DHT22;51453;47.738;7.420;2024-02-14T06:49:09;6.50;99.90
64939;DHT22;51453;47.738;7.420;2024-02-14T06:51:35;6.50;99.90
64939;DHT22;51453;47.738;7.420;2024-02-14T06:54:02;6.60;99.90
64939;DHT22;51453;47.738;7.420;2024-02-14T06:56:29;6.70;99.90
64939;DHT22;51453;47.738;7.420;2024-02-14T06:58:56;6.80;99.90
64939;DHT22;51453;47.738;7.420;2024-02-14T07:01:26;6.80;99.90
64939;DHT22;51453;47.738;7.420;2024-02-14T07:03:52;6.90;99.90
64939;DHT22;51453;47.738;7.420;2024-02-14T07:06:18;7.00;99.90
64939;DHT22;51453;47.738;7.420;2024-02-14T07:08:44;7.10;99.90
64939;DHT22;51453;47.738;7.420;2024-02-14T07:11:10;7.10;99.90
64939;DHT22;51453;47.738;7.420;2024-02-14T07:13:35;7.10;99.90
64939;DHT22;51453;47.738;7.420;2024-02-14T07:16:01;7.10;99.90
64939;DHT22;51453;47.738;7.420;2024-02-14T07:18:26;7.20;99.90
64939;DHT22;51453;47.738;7.420;2024-02-14T07:20:52;7.30;99.90
64939;DHT22;51453;47.738;7.420;2024-02-14T07:23:21;7.30;99.90
64939;DHT22;51453;47.738;7.420;2024-02-14T07:25:46;7.30;99.90
64939;DHT22;51453;47.738;7.420;2024-02-14T07:28:12;7.40;99.90
64939;DHT22;51453;47.738;7.420;2024-02-14T07:30:38;7.50;99.90
64939;DHT22;51453;47.738;7.420;2024-02-14T07:33:04;7.60;99.90
64939;DHT22;51453;47.738;7.420;2024-02-14T07:35:29;7.70;99.90
64939;DHT22;51453;47.738;7.420;2024-02-14T07:37:55;7.80;99.90
64939;DHT22;51453;47.738;7.420;2024-02-14T07:40:22;7.80;99.90
64939;DHT22;51453;47.738;7.420;2024-02-14T07:42:48;7.90;99.90
64939;DHT22;51453;47.738;7.420;2024-02-14T07:45:14;8.00;99.90
64939;DHT22;51453;47.738;7.420;2024-02-14T07:47:40;8.10;99.90
64939;DHT22;51453;47.738;7.420;2024-02-14T07:50:06;8.20;99.90
64939;DHT22;51453;47.738;7.420;2024-02-14T07:52:33;8.20;99.90
64939;DHT22;51453;47.738;7.420;2024-02-14T07:54:58;8.30;99.90
64939;DHT22;51453;47.738;7.420;2024-02-14T07:57:24;8.30;99.90
64939;DHT22;51453;47.738;7.420;2024-02-14T07:59:53;8.40;99.90
64939;DHT22;51453;47.738;7.420;2024-02-14T08:02:20;8.50;99.90
64939;DHT22;51453;47.738;7.420;2024-02-14T08:04:46;8.50;99.90
64939;DHT22;51453;47.738;7.420;2024-02-14T08:07:12;8.50;99.90
64939;DHT22;51453;47.738;7.420;2024-02-14T08:09:37;8.60;99.90
64939;DHT22;51453;47.738;7.420;2024-02-14T08:12:05;8.60;99.90
64939;DHT22;51453;47.738;7.420;2024-02-14T08:14:31;8.70;99.90
64939;DHT22;51453;47.738;7.420;2024-02-14T08:16:57;8.70;99.90
64939;DHT22;51453;47.738;7.420;2024-02-14T08:19:23;8.70;99.90
64939;DHT22;51453;47.738;7.420;2024-02-14T08:21:48;8.80;99.90
64939;DHT22;51453;47.738;7.420;2024-02-14T08:24:14;8.90;99.90
64939;DHT22;51453;47.738;7.420;2024-02-14T08:26:39;9.00;99.90
64939;DHT22;51453;47.738;7.420;2024-02-14T08:29:05;9.00;99.90
64939;DHT22;51453;47.738;7.420;2024-02-14T08:31:32;9.10;99.90
64939;DHT22;51453;47.738;7.420;2024-02-14T08:33:58;9.10;99.90
64939;DHT22;51453;47.738;7.420;2024-02-14T08:36:24;9.20;99.90
64939;DHT22;51453;47.738;7.420;2024-02-14T08:38:50;9.20;99.90
64939;DHT22;51453;47.738;7.420;2024-02-14T08:41:15;9.40;99.90
64939;DHT22;51453;47.738;7.420;2024-02-14T08:43:41;9.50;99.90
64939;DHT22;51453;47.738;7.420;2024-02-14T08:46:10;9.60;99.90
64939;DHT22;51453;47.738;7.420;2024-02-14T08:48:38;9.70;99.90
64939;DHT22;51453;47.738;7.420;2024-02-14T08:51:12;9.90;99.90
64939;DHT22;51453;47.738;7.420;2024-02-14T08:53:38;9.90;99.90
64939;DHT22;51453;47.738;7.420;2024-02-14T08:56:04;9.90;99.90
64939;DHT22;51453;47.738;7.420;2024-02-14T08:58:30;10.00;99.90
64939;DHT22;51453;47.738;7.420;2024-02-14T09:00:56;10.10;99.90
64939;DHT22;51453;47.738;7.420;2024-02-14T09:03:21;10.00;99.90
64939;DHT22;51453;47.738;7.420;2024-02-14T09:05:48;10.10;99.90
64939;DHT22;51453;47.738;7.420;2024-02-14T09:08:14;10.10;99.90
64939;DHT22;51453;47.738;7.420;2024-02-14T09:10:40;10.10;99.90
64939;DHT22;51453;47.738;7.420;2024-02-14T09:13:05;10.30;99.90
64939;DHT22;51453;47.738;7.420;2024-02-14T09:15:33;10.50;99.90
64939;DHT22;51453;47.738;7.420;2024-02-14T09:17:58;10.50;99.90
64939;DHT22;51453;47.738;7.420;2024-02-14T09:20:25;10.50;99.90
64939;DHT22;51453;47.738;7.420;2024-02-14T09:22:51;10.60;99.90
64939;DHT22;51453;47.738;7.420;2024-02-14T09:25:17;10.70;99.90
64939;DHT22;51453;47.738;7.420;2024-02-14T09:27:42;10.70;99.90
64939;DHT22;51453;47.738;7.420;2024-02-14T09:30:10;10.80;99.90
64939;DHT22;51453;47.738;7.420;2024-02-14T09:32:36;10.70;99.90
64939;DHT22;51453;47.738;7.420;2024-02-14T09:35:02;10.70;99.90
64939;DHT22;51453;47.738;7.420;2024-02-14T09:37:32;10.80;99.90
64939;DHT22;51453;47.738;7.420;2024-02-14T09:39:57;10.90;99.90
64939;DHT22;51453;47.738;7.420;2024-02-14T09:42:29;11.00;99.90
64939;DHT22;51453;47.738;7.420;2024-02-14T09:44:59;11.10;99.90
64939;DHT22;51453;47.738;7.420;2024-02-14T09:47:30;11.20;99.90
64939;DHT22;51453;47.738;7.420;2024-02-14T09:49:59;11.30;99.90
64939;DHT22;51453;47.738;7.420;2024-02-14T09:52:25;11.60;99.90
64939;DHT22;51453;47.738;7.420;2024-02-14T09:54:52;11.80;99.90
64939;DHT22;51453;47.738;7.420;2024-02-14T09:57:18;12.00;99.90
64939;DHT22;51453;47.738;7.420;2024-02-14T09:59:44;12.10;99.90
64939;DHT22;51453;47.738;7.420;2024-02-14T10:02:10;12.20;99.90
64939;DHT22;51453;47.738;7.420;2024-02-14T10:04:36;12.40;99.90
64939;DHT22;51453;47.738;7.420;2024-02-14T10:07:04;12.40;99.90
64939;DHT22;51453;47.738;7.420;2024-02-14T10:09:30;12.40;99.90
64939;DHT22;51453;47.738;7.420;2024-02-14T10:11:56;12.40;99.90
64939;DHT22;51453;47.738;7.420;2024-02-14T10:14:23;12.40;99.90
64939;DHT22;51453;47.738;7.420;2024-02-14T10:16:49;12.60;99.90
64939;DHT22;51453;47.738;7.420;2024-02-14T10:19:16;12.60;99.90
64939;DHT22;51453;47.738;7.420;2024-02-14T10:21:42;12.80;99.90
64939;DHT22;51453;47.738;7.420;2024-02-14T10:24:08;12.70;99.90
64939;DHT22;51453;47.738;7.420;2024-02-14T10:26:36;12.70;99.90
64939;DHT22;51453;47.738;7.420;2024-02-14T10:29:02;12.80;99.90
64939;DHT22;51453;47.738;7.420;2024-02-14T10:31:28;12.80;99.90
64939;DHT22;51453;47.738;7.420;2024-02-14T10:33:55;12.80;99.90
64939;DHT22;51453;47.738;7.420;2024-02-14T10:36:22;12.80;99.90
64939;DHT22;51453;47.738;7.420;2024-02-14T10:38:48;12.70;99.90
64939;DHT22;51453;47.738;7.420;2024-02-14T10:41:16;12.60;99.90
64939;DHT22;51453;47.738;7.420;2024-02-14T10:43:42;12.60;99.90
64939;DHT22;51453;47.738;7.420;2024-02-14T10:46:22;12.50;99.90
64939;DHT22;51453;47.738;7.420;2024-02-14T10:48:53;12.60;99.90
64939;DHT22;51453;47.738;7.420;2024-02-14T10:51:21;12.60;99.90
64939;DHT22;51453;47.738;7.420;2024-02-14T10:53:49;12.70;99.90
64939;DHT22;51453;47.738;7.420;2024-02-14T10:56:18;12.90;99.90
64939;DHT22;51453;47.738;7.420;2024-02-14T10:58:47;13.00;99.90
64939;DHT22;51453;47.738;7.420;2024-02-14T11:01:14;12.90;99.90
64939;DHT22;51453;47.738;7.420;2024-02-14T11:03:42;13.00;99.90
64939;DHT22;51453;47.738;7.420;2024-02-14T11:06:08;13.20;99.90
64939;DHT22;51453;47.738;7.420;2024-02-14T11:08:34;13.10;99.90
64939;DHT22;51453;47.738;7.420;2024-02-14T11:11:00;13.10;99.90
64939;DHT22;51453;47.738;7.420;2024-02-14T11:13:29;12.90;99.90
64939;DHT22;51453;47.738;7.420;2024-02-14T11:15:57;12.80;99.90
64939;DHT22;51453;47.738;7.420;2024-02-14T11:18:28;12.60;99.90
64939;DHT22;51453;47.738;7.420;2024-02-14T11:20:58;12.60;99.90
64939;DHT22;51453;47.738;7.420;2024-02-14T11:23:24;12.70;99.90
64939;DHT22;51453;47.738;7.420;2024-02-14T11:26:01;12.70;99.90
64939;DHT22;51453;47.738;7.420;2024-02-14T11:28:28;13.00;99.90
64939;DHT22;51453;47.738;7.420;2024-02-14T11:31:00;13.20;99.90
64939;DHT22;51453;47.738;7.420;2024-02-14T11:33:26;13.40;99.90
64939;DHT22;51453;47.738;7.420;2024-02-14T11:35:53;13.30;99.90
64939;DHT22;51453;47.738;7.420;2024-02-14T11:38:23;13.40;99.90
64939;DHT22;51453;47.738;7.420;2024-02-14T11:40:54;13.40;99.90
64939;DHT22;51453;47.738;7.420;2024-02-14T11:43:22;13.50;99.90
64939;DHT22;51453;47.738;7.420;2024-02-14T11:45:48;13.60;99.90
64939;DHT22;51453;47.738;7.420;2024-02-14T11:48:20;13.70;99.90
64939;DHT22;51453;47.738;7.420;2024-02-14T11:50:46;13.80;99.90
64939;DHT22;51453;47.738;7.420;2024-02-14T11:53:13;13.80;99.90
64939;DHT22;51453;47.738;7.420;2024-02-14T11:55:42;13.80;99.90
64939;DHT22;51453;47.738;7.420;2024-02-14T11:58:09;13.80;99.90
64939;DHT22;51453;47.738;7.420;2024-02-14T12:00:39;13.80;99.90
64939;DHT22;51453;47.738;7.420;2024-02-14T12:03:15;13.80;99.90
64939;DHT22;51453;47.738;7.420;2024-02-14T12:05:42;13.90;99.90
64939;DHT22;51453;47.738;7.420;2024-02-14T12:08:09;14.10;99.90
64939;DHT22;51453;47.738;7.420;2024-02-14T12:10:36;14.30;99.90
64939;DHT22;51453;47.738;7.420;2024-02-14T12:13:17;14.60;99.90
64939;DHT22;51453;47.738;7.420;2024-02-14T12:15:47;14.80;99.90
64939;DHT22;51453;47.738;7.420;2024-02-14T12:18:13;14.90;99.90
64939;DHT22;51453;47.738;7.420;2024-02-14T12:20:39;14.80;99.90
64939;DHT22;51453;47.738;7.420;2024-02-14T12:23:06;14.70;99.90
64939;DHT22;51453;47.738;7.420;2024-02-14T12:25:32;14.70;99.90
64939;DHT22;51453;47.738;7.420;2024-02-14T12:27:59;14.70;99.90
64939;DHT22;51453;47.738;7.420;2024-02-14T12:30:50;14.60;99.90
64939;DHT22;51453;47.738;7.420;2024-02-14T12:33:22;14.50;99.90
64939;DHT22;51453;47.738;7.420;2024-02-14T12:35:49;14.50;99.90
64939;DHT22;51453;47.738;7.420;2024-02-14T12:38:17;14.70;99.90
64939;DHT22;51453;47.738;7.420;2024-02-14T12:40:43;14.50;99.90
64939;DHT22;51453;47.738;7.420;2024-02-14T12:43:13;14.40;99.90
64939;DHT22;51453;47.738;7.420;2024-02-14T12:45:40;14.20;99.90
64939;DHT22;51453;47.738;7.420;2024-02-14T12:48:07;14.00;99.90
64939;DHT22;51453;47.738;7.420;2024-02-14T12:50:37;13.80;99.90
64939;DHT22;51453;47.738;7.420;2024-02-14T12:53:04;13.70;99.90
64939;DHT22;51453;47.738;7.420;2024-02-14T12:55:29;13.70;99.90
64939;DHT22;51453;47.738;7.420;2024-02-14T12:57:55;13.70;99.90
64939;DHT22;51453;47.738;7.420;2024-02-14T13:00:22;13.80;99.90
64939;DHT22;51453;47.738;7.420;2024-02-14T13:02:48;13.80;99.90
64939;DHT22;51453;47.738;7.420;2024-02-14T13:05:14;13.80;99.90
64939;DHT22;51453;47.738;7.420;2024-02-14T13:07:41;13.90;99.90
64939;DHT22;51453;47.738;7.420;2024-02-14T13:10:06;13.90;99.90
64939;DHT22;51453;47.738;7.420;2024-02-14T13:12:35;13.80;99.90
64939;DHT22;51453;47.738;7.420;2024-02-14T13:15:01;13.70;99.90
64939;DHT22;51453;47.738;7.420;2024-02-14T13:17:26;13.60;99.90
64939;DHT22;51453;47.738;7.420;2024-02-14T13:19:52;13.60;99.90
64939;DHT22;51453;47.738;7.420;2024-02-14T13:22:19;13.70;99.90
64939;DHT22;51453;47.738;7.420;2024-02-14T13:24:44;13.80;99.90
64939;DHT22;51453;47.738;7.420;2024-02-14T13:27:10;13.80;99.90
64939;DHT22;51453;47.738;7.420;2024-02-14T13:29:36;14.00;99.90
64939;DHT22;51453;47.738;7.420;2024-02-14T13:32:02;14.00;99.90
64939;DHT22;51453;47.738;7.420;2024-02-14T13:34:28;14.00;99.90
64939;DHT22;51453;47.738;7.420;2024-02-14T13:36:54;14.10;99.90
64939;DHT22;51453;47.738;7.420;2024-02-14T13:39:22;14.20;99.90
64939;DHT22;51453;47.738;7.420;2024-02-14T13:41:47;14.30;99.90
64939;DHT22;51453;47.738;7.420;2024-02-14T13:44:13;14.30;99.90
64939;DHT22;51453;47.738;7.420;2024-02-14T13:46:43;14.40;99.90
64939;DHT22;51453;47.738;7.420;2024-02-14T13:49:10;14.60;99.90
64939;DHT22;51453;47.738;7.420;2024-02-14T13:51:37;14.70;99.90
64939;DHT22;51453;47.738;7.420;2024-02-14T13:54:03;14.70;99.90
64939;DHT22;51453;47.738;7.420;2024-02-14T13:56:29;14.80;99.90
64939;DHT22;51453;47.738;7.420;2024-02-14T13:58:54;14.80;99.90
64939;DHT22;51453;47.738;7.420;2024-02-14T14:01:20;14.80;99.90
64939;DHT22;51453;47.738;7.420;2024-02-14T14:03:46;14.80;99.90
64939;DHT22;51453;47.738;7.420;2024-02-14T14:06:13;14.80;99.90
64939;DHT22;51453;47.738;7.420;2024-02-14T14:08:39;14.80;99.90
64939;DHT22;51453;47.738;7.420;2024-02-14T14:11:05;14.80;99.90
64939;DHT22;51453;47.738;7.420;2024-02-14T14:13:31;14.70;99.90
64939;DHT22;51453;47.738;7.420;2024-02-14T14:16:01;14.60;99.90
64939;DHT22;51453;47.738;7.420;2024-02-14T14:18:30;14.60;99.90
64939;DHT22;51453;47.738;7.420;2024-02-14T14:20:56;14.60;99.90
64939;DHT22;51453;47.738;7.420;2024-02-14T14:23:22;14.60;99.90
64939;DHT22;51453;47.738;7.420;2024-02-14T14:25:47;14.50;99.90
64939;DHT22;51453;47.738;7.420;2024-02-14T14:28:13;14.50;99.90
64939;DHT22;51453;47.738;7.420;2024-02-14T14:30:40;14.50;99.90
64939;DHT22;51453;47.738;7.420;2024-02-14T14:33:06;14.40;99.90
64939;DHT22;51453;47.738;7.420;2024-02-14T14:35:33;14.30;99.90
64939;DHT22;51453;47.738;7.420;2024-02-14T14:38:03;14.20;99.90
64939;DHT22;51453;47.738;7.420;2024-02-14T14:40:29;14.10;99.90
64939;DHT22;51453;47.738;7.420;2024-02-14T14:42:54;14.10;99.90
64939;DHT22;51453;47.738;7.420;2024-02-14T14:45:20;14.10;99.90
64939;DHT22;51453;47.738;7.420;2024-02-14T14:47:46;14.10;99.90
64939;DHT22;51453;47.738;7.420;2024-02-14T14:50:11;14.10;99.90
64939;DHT22;51453;47.738;7.420;2024-02-14T14:52:41;14.10;99.90
64939;DHT22;51453;47.738;7.420;2024-02-14T14:55:09;14.10;99.90
64939;DHT22;51453;47.738;7.420;2024-02-14T14:57:35;14.00;99.90
64939;DHT22;51453;47.738;7.420;2024-02-14T15:00:10;14.00;99.90
64939;DHT22;51453;47.738;7.420;2024-02-14T15:02:43;14.00;99.90
64939;DHT22;51453;47.738;7.420;2024-02-14T15:05:10;14.00;99.90
64939;DHT22;51453;47.738;7.420;2024-02-14T15:07:39;14.00;99.90
64939;DHT22;51453;47.738;7.420;2024-02-14T15:10:06;13.90;99.90
64939;DHT22;51453;47.738;7.420;2024-02-14T15:12:33;13.90;99.90
64939;DHT22;51453;47.738;7.420;2024-02-14T15:15:02;14.00;99.90
64939;DHT22;51453;47.738;7.420;2024-02-14T15:17:28;13.90;99.90
64939;DHT22;51453;47.738;7.420;2024-02-14T15:19:55;13.90;99.90
64939;DHT22;51453;47.738;7.420;2024-02-14T15:22:21;13.80;99.90
64939;DHT22;51453;47.738;7.420;2024-02-14T15:24:46;13.80;99.90
64939;DHT22;51453;47.738;7.420;2024-02-14T15:27:12;13.80;99.90
64939;DHT22;51453;47.738;7.420;2024-02-14T15:29:47;13.80;99.90
64939;DHT22;51453;47.738;7.420;2024-02-14T15:32:31;13.80;99.90
64939;DHT22;51453;47.738;7.420;2024-02-14T15:35:15;13.70;99.90
64939;DHT22;51453;47.738;7.420;2024-02-14T15:37:41;13.70;99.90